Time;durP1;ratioP1;P1;durP2;ratioP2;P2;SDS_P1;SDS_P2;PMS_P1;PMS_P2;Temp;Humidity;BMP_temperature;BMP_pressure;BME280_temperature;BME280_humidity;BME280_pressure;Samples;Min_cycle;Max_cycle;Signal;HPM_P1;HPM_P2
2022/08/31 00:05:08;;;;;;;14.40;8.02;;;;;;;25.98;100.00;100856.25;4979300;28;20042;-72
2022/08/31 00:07:54;;;;;;;11.60;7.80;;;;;;;26.11;100.00;100856.13;4979101;28;20037;-72
2022/08/31 00:10:44;;;;;;;12.85;8.32;;;;;;;25.90;100.00;100855.13;4979209;28;20105;-72
2022/08/31 00:13:30;;;;;;;16.83;7.55;;;;;;;25.91;100.00;100855.00;4978535;28;20023;-73
2022/08/31 00:16:16;;;;;;;13.32;8.18;;;;;;;25.93;100.00;100857.56;4979115;28;20041;-71
2022/08/31 00:19:03;;;;;;;12.80;8.00;;;;;;;25.99;100.00;100859.78;4979218;28;20058;-72
2022/08/31 00:21:49;;;;;;;13.98;8.23;;;;;;;26.17;100.00;100863.72;4971126;28;20038;-72
2022/08/31 00:24:34;;;;;;;10.68;7.97;;;;;;;25.85;100.00;100865.38;4978968;28;20038;-73
2022/08/31 00:27:20;;;;;;;14.02;7.90;;;;;;;25.73;100.00;100863.63;4979344;28;20031;-72
2022/08/31 00:30:07;;;;;;;14.10;8.13;;;;;;;25.56;100.00;100867.59;4979125;28;20027;-71
2022/08/31 00:32:53;;;;;;;14.20;8.13;;;;;;;25.54;100.00;100861.53;4978769;28;20113;-72
2022/08/31 00:35:40;;;;;;;14.05;7.88;;;;;;;25.61;100.00;100861.91;4970106;28;20022;-71
2022/08/31 00:38:26;;;;;;;14.55;7.95;;;;;;;25.57;100.00;100861.28;4978528;28;20451;-72
2022/08/31 00:41:12;;;;;;;12.38;8.10;;;;;;;25.78;100.00;100872.19;4978895;28;20027;-72
2022/08/31 00:44:00;;;;;;;13.57;8.10;;;;;;;25.50;100.00;100865.41;4978439;28;20046;-72
2022/08/31 00:46:46;;;;;;;14.73;7.97;;;;;;;25.17;100.00;100865.28;4978464;28;20034;-72
2022/08/31 00:49:37;;;;;;;10.60;8.30;;;;;;;25.37;100.00;100864.66;4978400;28;20030;-72
2022/08/31 00:52:30;;;;;;;13.65;8.43;;;;;;;25.52;100.00;100871.50;4977682;28;20037;-72
2022/08/31 00:55:34;;;;;;;12.18;7.90;;;;;;;25.65;100.00;100871.44;4977568;28;20124;-72
2022/08/31 00:58:20;;;;;;;15.73;8.93;;;;;;;25.64;100.00;100870.56;4978658;28;20069;-72
2022/08/31 01:01:07;;;;;;;11.10;8.15;;;;;;;25.34;100.00;100880.09;4978348;28;20034;-73
2022/08/31 01:03:53;;;;;;;11.60;8.48;;;;;;;25.84;100.00;100879.78;4977295;28;20109;-72
2022/08/31 01:06:40;;;;;;;14.90;8.50;;;;;;;25.59;100.00;100879.97;4977685;28;20468;-72
2022/08/31 01:09:29;;;;;;;12.70;8.48;;;;;;;25.72;100.00;100884.25;4979242;28;20053;-72
2022/08/31 01:12:15;;;;;;;13.95;8.45;;;;;;;25.53;100.00;100897.38;4977657;28;20367;-72
2022/08/31 01:15:02;;;;;;;11.93;7.93;;;;;;;25.66;100.00;100905.34;4978134;28;20026;-72
2022/08/31 01:17:51;;;;;;;16.48;8.90;;;;;;;25.50;100.00;100907.47;4978756;28;20031;-72
2022/08/31 01:20:49;;;;;;;12.18;7.95;;;;;;;25.57;100.00;100914.09;4978035;28;20026;-72
2022/08/31 01:23:41;;;;;;;13.23;8.52;;;;;;;25.44;100.00;100914.16;4977765;28;20038;-72
2022/08/31 01:26:29;;;;;;;12.75;8.82;;;;;;;25.69;100.00;100914.03;4978816;28;20352;-73
2022/08/31 01:29:15;;;;;;;13.98;8.57;;;;;;;25.43;100.00;100914.31;4978427;28;20026;-72
2022/08/31 01:32:01;;;;;;;17.63;8.75;;;;;;;25.54;100.00;100914.31;4978410;28;20027;-72
2022/08/31 01:34:47;;;;;;;16.38;8.95;;;;;;;25.65;100.00;100912.56;4969949;28;20452;-72
2022/08/31 01:37:33;;;;;;;14.15;8.80;;;;;;;25.36;100.00;100913.88;4978082;28;20019;-72
2022/08/31 01:40:19;;;;;;;13.02;8.55;;;;;;;25.49;100.00;100914.69;4977762;28;20065;-72
2022/08/31 01:43:04;;;;;;;14.63;9.15;;;;;;;25.59;100.00;100907.63;4971727;28;20166;-72
2022/08/31 01:45:51;;;;;;;14.98;8.80;;;;;;;25.63;100.00;100905.59;4977733;28;20097;-72
2022/08/31 01:48:38;;;;;;;16.00;9.07;;;;;;;25.45;100.00;100921.25;4977055;28;20117;-72
2022/08/31 01:51:23;;;;;;;12.65;8.70;;;;;;;25.71;100.00;100917.44;4976941;28;20047;-72
2022/08/31 01:54:10;;;;;;;14.88;9.00;;;;;;;25.59;100.00;100918.38;4977059;28;20084;-73
2022/08/31 01:56:57;;;;;;;19.10;8.85;;;;;;;25.48;100.00;100909.44;4965194;28;20486;-72
2022/08/31 01:59:42;;;;;;;12.63;9.07;;;;;;;25.58;100.00;100915.81;4977274;28;20023;-72
2022/08/31 02:02:28;;;;;;;12.18;9.05;;;;;;;25.44;100.00;100911.47;4977142;28;20065;-72
2022/08/31 02:05:14;;;;;;;16.75;9.48;;;;;;;25.40;100.00;100914.53;4976211;28;20093;-72
2022/08/31 02:08:01;;;;;;;11.43;8.98;;;;;;;25.18;100.00;100914.38;4977636;28;20316;-72
2022/08/31 02:10:47;;;;;;;11.88;8.88;;;;;;;25.45;100.00;100921.25;4976966;28;20065;-72
2022/08/31 02:13:34;;;;;;;13.35;9.52;;;;;;;25.32;100.00;100917.78;4976996;28;20034;-73
2022/08/31 02:16:20;;;;;;;17.40;9.50;;;;;;;25.16;100.00;100913.66;4972561;28;20045;-72
2022/08/31 02:19:06;;;;;;;14.88;9.35;;;;;;;25.25;100.00;100924.56;4976872;28;20042;-72
2022/08/31 02:21:52;;;;;;;13.15;9.13;;;;;;;25.34;100.00;100928.38;4969589;28;20019;-73
2022/08/31 02:24:38;;;;;;;14.68;9.13;;;;;;;25.13;100.00;100932.66;4976730;28;20466;-73
2022/08/31 02:27:25;;;;;;;14.55;9.23;;;;;;;25.12;100.00;100933.63;4974341;28;20455;-73
2022/08/31 02:30:14;;;;;;;14.95;8.68;;;;;;;25.08;100.00;100948.22;4975901;28;20030;-73
2022/08/31 02:33:00;;;;;;;15.05;8.50;;;;;;;24.92;100.00;100948.50;4976389;28;20508;-72
2022/08/31 02:35:45;;;;;;;11.60;8.88;;;;;;;25.16;100.00;100956.56;4976206;28;20034;-72
2022/08/31 02:38:33;;;;;;;14.38;8.88;;;;;;;25.12;100.00;100952.41;4976308;28;20045;-72
2022/08/31 02:41:19;;;;;;;16.83;9.48;;;;;;;25.48;100.00;100944.31;4976306;28;20451;-72
2022/08/31 02:44:05;;;;;;;15.00;9.65;;;;;;;25.34;100.00;100950.72;4975956;28;20396;-72
2022/08/31 02:46:51;;;;;;;15.73;9.23;;;;;;;25.29;100.00;100949.34;4976818;28;20042;-73
2022/08/31 02:49:37;;;;;;;20.52;9.48;;;;;;;25.06;100.00;100952.81;4966969;28;20037;-72
2022/08/31 02:52:23;;;;;;;13.25;9.38;;;;;;;25.13;100.00;100949.59;4976711;28;20463;-72
2022/08/31 02:55:09;;;;;;;16.50;9.43;;;;;;;25.01;100.00;100953.19;4975343;28;20038;-72
2022/08/31 02:57:55;;;;;;;19.15;9.95;;;;;;;25.03;100.00;100948.56;4976200;28;20030;-73
2022/08/31 03:00:46;;;;;;;12.48;9.23;;;;;;;24.56;100.00;100958.28;4976687;28;20030;-72
2022/08/31 03:03:33;;;;;;;16.50;9.68;;;;;;;24.64;100.00;100953.28;4973720;28;20027;-72
2022/08/31 03:06:19;;;;;;;12.77;9.55;;;;;;;24.88;100.00;100948.81;4975349;28;20026;-72
2022/08/31 03:09:05;;;;;;;14.60;9.68;;;;;;;24.88;100.00;100948.81;4972299;28;20349;-72
2022/08/31 03:11:51;;;;;;;16.08;9.60;;;;;;;25.15;100.00;100946.81;4976265;28;20463;-72
2022/08/31 03:14:37;;;;;;;17.08;10.20;;;;;;;25.20;100.00;100947.31;4975373;28;20038;-72
2022/08/31 03:17:23;;;;;;;17.48;10.20;;;;;;;24.72;100.00;100946.41;4972897;28;20096;-72
2022/08/31 03:20:10;;;;;;;15.80;9.70;;;;;;;24.79;100.00;100944.97;4976334;28;20023;-72
2022/08/31 03:22:56;;;;;;;15.30;10.27;;;;;;;24.35;100.00;100946.44;4975795;28;20361;-74
2022/08/31 03:25:42;;;;;;;17.95;11.45;;;;;;;24.60;100.00;100952.63;4976151;28;20110;-72
2022/08/31 03:28:28;;;;;;;13.60;10.70;;;;;;;24.70;100.00;100953.69;4975535;28;20031;-72
2022/08/31 03:31:14;;;;;;;13.95;10.38;;;;;;;24.38;100.00;100946.19;4976294;28;20045;-71
2022/08/31 03:33:59;;;;;;;20.02;10.48;;;;;;;24.58;100.00;100946.50;4975041;28;20435;-72
2022/08/31 03:36:45;;;;;;;17.83;10.48;;;;;;;24.52;100.00;100951.44;4975578;28;20031;-72
2022/08/31 03:39:31;;;;;;;20.85;11.13;;;;;;;24.44;100.00;100945.78;4976267;28;20352;-72
2022/08/31 03:42:17;;;;;;;14.52;10.13;;;;;;;24.63;100.00;100948.88;4976448;28;20030;-72
2022/08/31 03:45:03;;;;;;;13.65;9.52;;;;;;;24.34;100.00;100947.41;4975381;28;20543;-73
2022/08/31 03:47:49;;;;;;;12.27;9.82;;;;;;;24.53;100.00;100937.94;4975762;28;20026;-72
2022/08/31 03:50:35;;;;;;;15.18;9.75;;;;;;;24.63;100.00;100940.84;4975913;28;20105;-73
2022/08/31 03:53:21;;;;;;;15.52;10.40;;;;;;;24.54;100.00;100939.63;4975432;28;20046;-72
2022/08/31 03:56:08;;;;;;;15.98;10.35;;;;;;;24.54;100.00;100936.97;4976449;28;20029;-73
2022/08/31 03:58:53;;;;;;;15.13;10.48;;;;;;;24.78;100.00;100940.59;4975164;28;20117;-72
2022/08/31 04:01:39;;;;;;;18.33;10.50;;;;;;;24.46;100.00;100949.19;4975704;28;20046;-73
2022/08/31 04:04:25;;;;;;;17.00;11.02;;;;;;;24.79;100.00;100950.34;4976228;28;20034;-73
2022/08/31 04:07:11;;;;;;;18.95;10.75;;;;;;;24.71;100.00;100962.59;4975432;28;20467;-72
2022/08/31 04:09:56;;;;;;;20.63;11.25;;;;;;;24.01;100.00;100965.78;4973961;28;20486;-72
2022/08/31 04:12:42;;;;;;;20.52;11.40;;;;;;;24.47;100.00;100967.00;4976010;28;20042;-72
2022/08/31 04:15:28;;;;;;;18.77;11.90;;;;;;;24.10;100.00;100959.81;4978980;28;20050;-72
2022/08/31 04:18:14;;;;;;;18.35;12.00;;;;;;;24.47;100.00;100956.28;4979335;28;20027;-73
2022/08/31 04:20:59;;;;;;;17.80;12.02;;;;;;;24.29;100.00;100957.56;4978943;28;20030;-72
2022/08/31 04:23:47;;;;;;;18.95;12.63;;;;;;;24.31;100.00;100950.28;4964020;28;20483;-72
2022/08/31 04:26:35;;;;;;;20.30;13.48;;;;;;;23.92;100.00;100953.03;4979227;28;20023;-73
2022/08/31 04:29:22;;;;;;;21.33;14.52;;;;;;;23.56;100.00;100952.81;4978745;28;20035;-72
2022/08/31 04:32:08;;;;;;;19.92;12.68;;;;;;;23.95;100.00;100956.34;4977028;28;20062;-72
2022/08/31 04:34:54;;;;;;;20.02;12.88;;;;;;;23.96;100.00;100957.22;4980138;28;20471;-72
2022/08/31 04:37:40;;;;;;;15.32;12.02;;;;;;;23.95;100.00;100953.69;4977771;28;20041;-73
2022/08/31 04:40:26;;;;;;;20.20;13.02;;;;;;;24.28;100.00;100958.53;4978328;28;20040;-72
2022/08/31 04:43:12;;;;;;;19.90;12.43;;;;;;;23.97;100.00;100951.75;4978805;28;20358;-72
2022/08/31 04:45:58;;;;;;;19.52;13.02;;;;;;;24.34;100.00;100953.59;4973287;28;20050;-72
2022/08/31 04:48:44;;;;;;;20.23;12.23;;;;;;;23.66;100.00;100946.75;4978510;28;20524;-73
2022/08/31 04:51:34;;;;;;;21.00;12.73;;;;;;;24.24;100.00;100943.63;4976694;28;20039;-73
2022/08/31 04:54:20;;;;;;;21.63;11.98;;;;;;;23.83;100.00;100938.44;4977446;28;20042;-73
2022/08/31 04:57:06;;;;;;;18.02;12.18;;;;;;;24.03;100.00;100947.81;4972986;28;20034;-71
2022/08/31 04:59:52;;;;;;;24.15;13.07;;;;;;;23.93;100.00;100933.34;4978277;28;20030;-73
2022/08/31 05:02:37;;;;;;;21.30;12.88;;;;;;;24.48;100.00;100939.22;4978620;28;20027;-72
2022/08/31 05:05:23;;;;;;;21.60;12.65;;;;;;;24.53;100.00;100937.94;4978451;28;20457;-73
2022/08/31 05:08:09;;;;;;;17.77;12.32;;;;;;;24.02;100.00;100943.44;4977983;28;20166;-72
2022/08/31 05:10:55;;;;;;;19.92;12.65;;;;;;;23.68;100.00;100939.50;4978484;28;20065;-72
2022/08/31 05:13:41;;;;;;;19.75;12.43;;;;;;;23.67;100.00;100939.59;4978287;28;20023;-72
2022/08/31 05:16:30;;;;;;;20.33;13.23;;;;;;;23.55;100.00;100937.75;4979532;28;20030;-72
2022/08/31 05:19:17;;;;;;;22.10;12.57;;;;;;;23.79;100.00;100938.75;4973806;28;20030;-73
2022/08/31 05:22:03;;;;;;;23.70;12.60;;;;;;;24.27;100.00;100938.06;4977927;28;20054;-72
2022/08/31 05:24:49;;;;;;;18.65;12.35;;;;;;;23.94;100.00;100938.59;4978034;28;20363;-72
2022/08/31 05:27:35;;;;;;;19.05;12.40;;;;;;;24.32;100.00;100941.28;4977696;28;20091;-72
2022/08/31 05:30:22;;;;;;;15.80;11.43;;;;;;;24.37;100.00;100949.84;4977495;28;20507;-72
2022/08/31 05:33:07;;;;;;;16.85;12.20;;;;;;;24.27;100.00;100943.44;4977623;28;20519;-73
2022/08/31 05:35:53;;;;;;;22.25;12.27;;;;;;;24.45;100.00;100936.75;4977610;28;20333;-72
2022/08/31 05:38:39;;;;;;;20.95;12.30;;;;;;;24.46;100.00;100933.97;4978396;28;20089;-72
2022/08/31 05:41:27;;;;;;;18.83;11.65;;;;;;;24.42;100.00;100939.66;4974527;28;20034;-73
2022/08/31 05:44:14;;;;;;;21.40;12.18;;;;;;;24.89;100.00;100931.75;4977147;28;20557;-73
2022/08/31 05:47:01;;;;;;;17.95;12.80;;;;;;;24.47;100.00;100934.84;4977725;28;20343;-72
2022/08/31 05:49:47;;;;;;;16.70;12.98;;;;;;;24.70;100.00;100937.59;4976755;28;20030;-73
2022/08/31 05:52:32;;;;;;;22.63;13.32;;;;;;;25.02;100.00;100932.56;4974683;28;20090;-72
2022/08/31 05:55:18;;;;;;;19.13;12.75;;;;;;;24.97;100.00;100932.06;4976889;28;20117;-73
2022/08/31 05:58:05;;;;;;;22.40;12.68;;;;;;;24.76;100.00;100941.66;4976816;28;20022;-73
2022/08/31 06:00:51;;;;;;;16.25;12.75;;;;;;;25.17;100.00;100939.50;4963828;28;20038;-73
2022/08/31 06:03:36;;;;;;;19.40;12.40;;;;;;;25.23;100.00;100941.75;4977635;28;20039;-72
2022/08/31 06:06:22;;;;;;;17.83;11.60;;;;;;;25.45;100.00;100937.38;4977615;28;20360;-73
2022/08/31 06:09:08;;;;;;;19.05;12.27;;;;;;;24.85;100.00;100954.41;4976833;28;20096;-72
2022/08/31 06:11:54;;;;;;;20.17;12.10;;;;;;;25.22;100.00;100953.41;4970118;28;20085;-72
2022/08/31 06:14:40;;;;;;;22.25;12.88;;;;;;;25.77;100.00;100953.69;4977307;28;20063;-72
2022/08/31 06:17:27;;;;;;;18.45;11.85;;;;;;;25.50;100.00;100953.97;4977321;28;20114;-72
2022/08/31 06:20:16;;;;;;;15.02;11.65;;;;;;;25.59;100.00;100960.47;4976550;28;20456;-73
2022/08/31 06:23:04;;;;;;;15.55;11.82;;;;;;;25.48;100.00;100960.41;4970956;28;20133;-73
2022/08/31 06:25:49;;;;;;;15.00;11.38;;;;;;;25.80;100.00;100969.59;4975856;28;20041;-72
2022/08/31 06:28:35;;;;;;;17.95;11.73;;;;;;;25.45;100.00;100982.13;4976751;28;20069;-72
2022/08/31 06:31:29;;;;;;;18.17;11.20;;;;;;;25.73;100.00;100987.13;4976422;28;20038;-72
2022/08/31 06:34:17;;;;;;;16.20;10.98;;;;;;;25.95;100.00;100990.75;4976421;28;20045;-73
2022/08/31 06:37:04;;;;;;;13.68;11.32;;;;;;;26.29;100.00;100983.66;4970351;28;20027;-73
2022/08/31 06:39:52;;;;;;;18.17;11.63;;;;;;;26.28;100.00;100998.06;4977400;28;20069;-73
2022/08/31 06:42:38;;;;;;;17.50;11.60;;;;;;;26.13;100.00;100996.56;4976095;28;20109;-73
2022/08/31 06:45:24;;;;;;;18.20;11.75;;;;;;;26.25;100.00;100996.47;4976754;28;20023;-73
2022/08/31 06:48:09;;;;;;;18.50;11.68;;;;;;;26.46;100.00;100993.91;4976086;28;20042;-72
2022/08/31 06:50:56;;;;;;;15.73;11.57;;;;;;;26.50;100.00;101000.75;4977275;28;20031;-72
2022/08/31 06:53:42;;;;;;;16.35;11.02;;;;;;;26.68;100.00;100994.81;4976786;28;20399;-72
2022/08/31 06:56:29;;;;;;;21.23;12.13;;;;;;;26.84;100.00;101002.53;4974021;28;20468;-72
2022/08/31 06:59:15;;;;;;;15.07;11.68;;;;;;;26.79;100.00;101000.19;4977759;28;20385;-73
2022/08/31 07:02:01;;;;;;;17.70;12.25;;;;;;;26.72;100.00;100993.59;4977250;28;20027;-72
2022/08/31 07:04:47;;;;;;;17.50;12.05;;;;;;;26.89;100.00;101001.16;4968246;28;20100;-72
2022/08/31 07:07:33;;;;;;;21.98;11.82;;;;;;;26.89;100.00;101003.00;4974208;28;20062;-72
2022/08/31 07:10:18;;;;;;;18.42;12.00;;;;;;;27.04;100.00;100997.25;4977900;28;20030;-71
2022/08/31 07:13:04;;;;;;;15.70;12.00;;;;;;;27.06;100.00;100995.28;4973016;28;20045;-72
2022/08/31 07:15:50;;;;;;;16.60;11.52;;;;;;;26.95;100.00;100998.00;4978214;28;20109;-71
2022/08/31 07:18:36;;;;;;;18.90;11.77;;;;;;;27.36;100.00;100998.19;4979102;28;20031;-71
2022/08/31 07:21:25;;;;;;;20.52;11.82;;;;;;;27.27;100.00;100998.94;4975534;28;20031;-71
2022/08/31 07:24:13;;;;;;;17.13;11.75;;;;;;;27.21;100.00;101003.97;4972379;28;20023;-71
2022/08/31 07:27:08;;;;;;;17.40;12.25;;;;;;;27.53;100.00;101000.31;4979548;28;20027;-72
2022/08/31 07:29:54;;;;;;;15.40;11.05;;;;;;;27.42;100.00;101000.38;4976978;28;20030;-72
2022/08/31 07:32:40;;;;;;;16.77;11.85;;;;;;;27.34;100.00;100996.59;4968936;28;20033;-72
2022/08/31 07:35:28;;;;;;;21.27;12.05;;;;;;;27.42;100.00;101000.38;4976943;28;20041;-73
2022/08/31 07:44:23;;;;;;;21.45;11.40;;;;;;;27.89;100.00;100993.75;4975915;28;20383;-72
2022/08/31 07:47:11;;;;;;;17.63;10.98;;;;;;;28.10;100.00;100994.59;4975192;28;20108;-72
2022/08/31 07:49:59;;;;;;;16.50;11.45;;;;;;;27.68;100.00;100986.59;4980478;28;20049;-71
2022/08/31 07:52:51;;;;;;;15.82;10.77;;;;;;;27.72;100.00;100996.94;4980884;28;20378;-71
2022/08/31 07:55:38;;;;;;;13.77;10.75;;;;;;;28.17;100.00;100993.09;4981398;28;20478;-72
2022/08/31 07:58:26;;;;;;;20.67;11.75;;;;;;;28.42;100.00;101002.63;4979598;28;20360;-71
2022/08/31 08:01:13;;;;;;;17.55;10.15;;;;;;;28.45;100.00;100996.97;4981378;28;20030;-72
2022/08/31 08:04:01;;;;;;;13.45;10.82;;;;;;;28.78;100.00;100991.31;4980620;28;20026;-72
2022/08/31 08:06:47;;;;;;;14.55;10.50;;;;;;;28.12;100.00;101000.69;4979093;28;20065;-72
2022/08/31 08:09:33;;;;;;;17.90;11.43;;;;;;;28.39;100.00;100997.47;4965133;28;20026;-73
2022/08/31 08:12:19;;;;;;;12.48;10.13;;;;;;;28.48;100.00;100999.41;4979381;28;20027;-72
2022/08/31 08:15:05;;;;;;;20.30;14.43;;;;;;;28.64;100.00;100991.69;4979583;28;20030;-76
2022/08/31 08:17:51;;;;;;;46.33;25.98;;;;;;;29.24;100.00;100981.69;4980293;28;20034;-76
2022/08/31 08:20:38;;;;;;;14.90;10.38;;;;;;;29.13;100.00;100981.78;4980108;28;20035;-77
2022/08/31 08:23:24;;;;;;;18.45;11.98;;;;;;;29.06;100.00;100994.16;4978424;28;20031;-76
2022/08/31 08:26:11;;;;;;;13.82;9.82;;;;;;;29.10;100.00;100986.63;4979264;28;20026;-77
2022/08/31 08:28:57;;;;;;;16.13;9.13;;;;;;;29.36;100.00;100985.97;4979140;28;20367;-78
2022/08/31 08:31:43;;;;;;;17.30;9.60;;;;;;;29.15;100.00;100989.75;4978784;28;20066;-78
2022/08/31 08:34:28;;;;;;;17.70;10.15;;;;;;;29.37;100.00;100976.03;4978234;28;20530;-77
2022/08/31 08:37:14;;;;;;;17.95;9.55;;;;;;;30.19;100.00;100973.66;4974953;28;20035;-77
2022/08/31 08:40:04;;;;;;;16.70;9.30;;;;;;;30.81;99.54;100973.88;4979171;28;20101;-78
2022/08/31 08:42:49;;;;;;;16.90;9.00;;;;;;;30.61;98.52;100964.09;4978115;28;20082;-77
2022/08/31 08:45:35;;;;;;;15.30;9.73;;;;;;;30.43;98.01;100975.84;4978379;28;20038;-76
2022/08/31 08:48:25;;;;;;;20.85;10.35;;;;;;;30.67;96.82;100962.66;4980328;28;20392;-76
2022/08/31 08:51:15;;;;;;;18.52;9.63;;;;;;;31.10;95.75;100947.50;4979042;28;20367;-77
2022/08/31 08:54:11;;;;;;;23.02;10.02;;;;;;;30.96;96.99;100952.59;4978837;28;20023;-77
2022/08/31 08:56:59;;;;;;;19.17;10.48;;;;;;;30.10;99.25;100947.44;4972815;28;20094;-77
2022/08/31 08:59:47;;;;;;;18.30;9.38;;;;;;;29.72;98.47;100946.63;4969971;28;20058;-77
2022/08/31 09:02:33;;;;;;;17.88;10.57;;;;;;;29.67;100.00;100947.09;4978470;28;20364;-77
2022/08/31 09:05:42;;;;;;;18.77;10.32;;;;;;;29.50;100.00;100936.94;4977386;28;20085;-77
2022/08/31 09:09:11;;;;;;;14.82;10.13;;;;;;;30.64;100.00;100935.91;4962657;28;20038;-77
2022/08/31 09:12:00;;;;;;;19.55;10.55;;;;;;;31.08;97.18;100936.00;4972385;28;20023;-76
2022/08/31 09:15:10;;;;;;;16.42;10.23;;;;;;;30.66;99.01;100940.16;4979144;28;20293;-76
2022/08/31 09:18:06;;;;;;;19.88;10.40;;;;;;;30.77;98.78;100939.13;4980957;28;20575;-76
2022/08/31 09:21:01;;;;;;;19.90;10.10;;;;;;;31.29;96.61;100933.88;4980151;28;20031;-76
2022/08/31 09:24:11;;;;;;;14.23;9.90;;;;;;;30.75;95.92;100928.50;4970551;28;20026;-76
2022/08/31 09:27:17;;;;;;;15.48;8.93;;;;;;;31.25;93.79;100915.38;4978305;28;20461;-76
2022/08/31 09:30:05;;;;;;;23.05;9.90;;;;;;;31.59;90.31;100931.78;4977508;28;20035;-77
2022/08/31 09:32:56;;;;;;;15.52;9.00;;;;;;;32.22;83.05;100928.72;4978744;28;20042;-77
2022/08/31 09:35:42;;;;;;;18.92;8.88;;;;;;;32.01;88.03;100927.44;4978643;28;20049;-77
2022/08/31 09:38:32;;;;;;;18.60;8.90;;;;;;;32.12;85.34;100929.84;4976223;28;20034;-76
2022/08/31 09:41:20;;;;;;;18.02;9.27;;;;;;;32.40;82.45;100934.13;4974088;28;20041;-76
2022/08/31 09:44:29;;;;;;;18.30;8.90;;;;;;;32.34;79.50;100935.63;4971117;28;20043;-76
2022/08/31 09:47:51;;;;;;;18.20;9.60;;;;;;;31.75;82.59;100930.06;4977979;28;20109;-76
2022/08/31 09:50:43;;;;;;;21.17;8.77;;;;;;;31.74;79.33;100928.34;4977449;28;20042;-76
2022/08/31 09:57:08;;;;;;;19.85;9.25;;;;;;;32.15;77.34;100919.56;4977425;28;20030;-77
2022/08/31 09:59:54;;;;;;;20.45;8.70;;;;;;;32.72;75.64;100924.31;4971106;28;20033;-77
2022/08/31 10:02:41;;;;;;;13.57;8.80;;;;;;;32.83;76.13;100920.47;4976710;28;20473;-77
2022/08/31 10:05:39;;;;;;;21.50;8.90;;;;;;;32.33;71.54;100922.22;4978983;28;20038;-77
2022/08/31 10:08:56;;;;;;;15.32;8.30;;;;;;;31.44;77.80;100909.81;4977006;28;20467;-77
2022/08/31 10:11:46;;;;;;;22.83;8.63;;;;;;;31.99;76.89;100902.31;4976559;28;20061;-78
2022/08/31 10:14:40;;;;;;;22.63;9.13;;;;;;;32.22;75.73;100901.63;4974975;28;20041;-77
2022/08/31 10:17:31;;;;;;;18.33;9.43;;;;;;;32.62;74.64;100891.00;4976112;28;20045;-76
2022/08/31 10:20:22;;;;;;;16.95;8.52;;;;;;;32.42;74.42;100899.56;4977020;28;20027;-77
2022/08/31 10:23:25;;;;;;;18.33;10.82;;;;;;;32.56;76.09;100880.81;4976594;28;20528;-77
2022/08/31 10:26:19;;;;;;;17.25;7.93;;;;;;;32.80;71.08;100878.19;4975648;28;20065;-77
2022/08/31 10:29:16;;;;;;;15.15;8.10;;;;;;;32.67;74.11;100875.09;4977418;28;20026;-77
2022/08/31 10:32:29;;;;;;;24.67;8.70;;;;;;;32.83;69.37;100868.91;4971280;28;20054;-77
2022/08/31 10:35:21;;;;;;;16.90;8.60;;;;;;;31.94;74.09;100872.13;4975538;28;20030;-77
2022/08/31 10:38:19;;;;;;;17.80;8.77;;;;;;;32.43;72.83;100860.56;4976467;28;20034;-78
2022/08/31 10:41:29;;;;;;;18.98;8.27;;;;;;;32.79;69.05;100862.06;4977390;28;20074;-78
2022/08/31 10:44:25;;;;;;;19.65;9.05;;;;;;;32.35;72.71;100861.41;4975616;28;20066;-77
2022/08/31 10:47:11;;;;;;;18.27;9.57;;;;;;;32.54;70.73;100852.16;4976380;28;20042;-78
2022/08/31 10:49:59;;;;;;;16.50;8.45;;;;;;;32.24;73.12;100847.22;4964971;28;20030;-76
2022/08/31 10:52:58;;;;;;;17.52;8.77;;;;;;;32.50;72.49;100840.75;4976693;28;20042;-76
2022/08/31 10:56:13;;;;;;;21.88;8.57;;;;;;;32.18;72.40;100845.16;4976314;28;20429;-77
2022/08/31 10:59:22;;;;;;;17.73;8.07;;;;;;;32.47;71.53;100832.09;4970519;28;20042;-77
2022/08/31 11:02:29;;;;;;;16.02;8.43;;;;;;;33.23;68.50;100836.38;4976565;28;20027;-77
2022/08/31 11:05:21;;;;;;;23.88;8.18;;;;;;;32.63;67.72;100833.00;4976876;28;20022;-77
2022/08/31 11:08:29;;;;;;;20.88;8.27;;;;;;;33.38;66.88;100830.13;4976282;28;20030;-77
2022/08/31 11:11:39;;;;;;;21.08;7.80;;;;;;;32.18;69.10;100818.88;4976265;28;20022;-77
2022/08/31 11:14:36;;;;;;;19.45;8.25;;;;;;;33.03;66.40;100821.41;4976164;28;20034;-77
2022/08/31 11:17:48;;;;;;;20.88;9.75;;;;;;;33.01;65.78;100823.44;4976134;28;20019;-77
2022/08/31 11:20:39;;;;;;;16.75;8.75;;;;;;;33.36;64.37;100815.88;4975511;28;20447;-77
2022/08/31 11:24:16;;;;;;;15.02;7.55;;;;;;;33.27;64.99;100813.28;4976345;28;20082;-77
2022/08/31 11:27:21;;;;;;;17.35;7.93;;;;;;;33.82;62.20;100806.13;4955093;28;20046;-77
2022/08/31 11:30:23;;;;;;;21.15;9.18;;;;;;;33.56;61.31;100805.50;4980733;28;20038;-77
2022/08/31 11:33:18;;;;;;;16.98;7.97;;;;;;;33.64;60.78;100797.31;4975069;28;20038;-77
2022/08/31 11:36:07;;;;;;;16.85;6.68;;;;;;;32.95;58.66;100786.13;4980221;28;20037;-76
2022/08/31 11:39:02;;;;;;;18.83;7.18;;;;;;;32.81;59.54;100792.19;4981863;28;20031;-77
2022/08/31 11:41:49;;;;;;;21.52;7.30;;;;;;;32.75;60.12;100788.22;4979387;28;20089;-77
2022/08/31 11:44:38;;;;;;;20.73;7.28;;;;;;;32.79;57.82;100772.47;4978439;28;20067;-78
2022/08/31 11:47:26;;;;;;;16.85;7.47;;;;;;;32.99;58.02;100779.31;4976585;28;20448;-77
2022/08/31 11:50:21;;;;;;;14.88;6.90;;;;;;;33.20;56.85;100771.53;4980066;28;20058;-78
2022/08/31 11:53:36;;;;;;;24.60;11.82;;;;;;;33.79;55.30;100768.41;4979889;28;20030;-78
2022/08/31 11:56:35;;;;;;;22.23;7.85;;;;;;;33.72;54.92;100764.69;4979803;28;20045;-77
2022/08/31 11:59:34;;;;;;;14.35;7.07;;;;;;;32.80;57.71;100766.03;4979813;28;20041;-78
2022/08/31 12:02:20;;;;;;;17.63;7.65;;;;;;;32.87;57.71;100758.97;4979551;28;20428;-78
2022/08/31 12:05:06;;;;;;;17.65;6.85;;;;;;;32.34;61.60;100751.16;4979319;28;20026;-77
2022/08/31 12:07:56;;;;;;;16.27;8.00;;;;;;;33.42;57.64;100749.09;4979289;28;20031;-77
2022/08/31 12:11:11;;;;;;;18.77;7.32;;;;;;;33.32;56.74;100749.31;4978913;28;20035;-77
2022/08/31 12:14:10;;;;;;;20.30;7.32;;;;;;;33.56;54.65;100742.97;4949832;28;20375;-77
2022/08/31 12:17:21;;;;;;;15.15;6.90;;;;;;;34.00;52.13;100736.91;4978639;28;20105;-76
2022/08/31 12:20:34;;;;;;;15.10;6.18;;;;;;;33.31;53.97;100742.13;4981329;28;20038;-78
2022/08/31 12:23:59;;;;;;;17.08;9.57;;;;;;;33.86;53.10;100734.94;4975550;28;20034;-76
2022/08/31 12:26:50;;;;;;;20.65;6.60;;;;;;;34.21;53.04;100733.59;4969542;28;20225;-77
2022/08/31 12:29:39;;;;;;;14.80;6.05;;;;;;;34.20;51.50;100727.28;4979392;28;20102;-77
2022/08/31 12:32:36;;;;;;;22.70;7.10;;;;;;;33.28;51.30;100725.34;4979916;28;20035;-77
2022/08/31 12:35:27;;;;;;;21.20;6.70;;;;;;;33.02;53.15;100722.81;4976532;28;20177;-77
2022/08/31 12:38:19;;;;;;;14.25;6.50;;;;;;;33.66;50.81;100725.44;4978391;28;20479;-79
2022/08/31 12:41:09;;;;;;;24.63;7.15;;;;;;;34.04;50.68;100712.94;4973549;28;20065;-77
2022/08/31 12:43:55;;;;;;;20.13;6.45;;;;;;;33.84;51.99;100708.94;4977724;28;20138;-76
2022/08/31 12:46:51;;;;;;;20.55;6.53;;;;;;;34.26;50.60;100717.56;4979250;28;20537;-77
2022/08/31 12:50:11;;;;;;;18.95;6.60;;;;;;;33.72;50.40;100704.88;4979755;28;20448;-77
2022/08/31 12:53:16;;;;;;;16.25;6.55;;;;;;;33.30;54.10;100707.84;4973078;28;20122;-77
2022/08/31 12:56:10;;;;;;;14.60;6.22;;;;;;;33.78;54.04;100696.00;4981572;28;20022;-77
2022/08/31 12:58:59;;;;;;;18.70;6.88;;;;;;;33.93;51.90;100697.00;4980882;28;20087;-78
2022/08/31 13:01:48;;;;;;;13.27;6.00;;;;;;;32.82;52.09;100702.44;4963359;28;20034;-77
2022/08/31 13:04:34;;;;;;;25.15;6.80;;;;;;;33.21;51.55;100698.00;4977891;28;20037;-77
2022/08/31 13:07:32;;;;;;;17.75;5.80;;;;;;;33.11;52.46;100697.34;4978267;28;20035;-76